createdAt,value
2019-03-20T00:01:19.318Z,101388.50
2019-03-20T00:03:50.575Z,101390.34
2019-03-20T00:06:21.560Z,101391.73
2019-03-20T00:08:52.586Z,101387.23
2019-03-20T00:11:25.101Z,101394.66
2019-03-20T00:13:56.208Z,101393.92
2019-03-20T00:16:27.326Z,101396.25
2019-03-20T00:18:59.887Z,101402.02
2019-03-20T00:21:31.043Z,101402.95
2019-03-20T00:24:02.325Z,101408.73
2019-03-20T00:26:33.330Z,101409.74
2019-03-20T00:29:04.353Z,101405.46
2019-03-20T00:31:35.333Z,101401.41
2019-03-20T00:34:06.519Z,101398.66
2019-03-20T00:36:37.609Z,101403.37
2019-03-20T00:39:08.704Z,101403.37
2019-03-20T00:41:39.707Z,101398.56
2019-03-20T00:44:10.753Z,101390.64
2019-03-20T00:46:41.700Z,101391.89
2019-03-20T00:49:12.808Z,101392.86
2019-03-20T00:51:43.910Z,101399.20
2019-03-20T00:54:15.121Z,101392.40
2019-03-20T00:56:46.944Z,101400.39
2019-03-20T00:59:18.049Z,101389.00
2019-03-20T01:01:49.160Z,101392.98
2019-03-20T01:04:20.181Z,101387.17
2019-03-20T01:06:54.373Z,101394.92
2019-03-20T01:09:25.318Z,101399.30
2019-03-20T01:11:56.412Z,101401.75
2019-03-20T01:14:27.580Z,101408.57
2019-03-20T01:16:58.544Z,101404.51
2019-03-20T01:19:29.496Z,101406.50
2019-03-20T01:22:00.493Z,101410.06
2019-03-20T01:24:31.434Z,101409.59
2019-03-20T01:27:02.568Z,101408.36
2019-03-20T01:29:33.609Z,101406.08
2019-03-20T01:32:04.595Z,101401.19
2019-03-20T01:34:35.583Z,101399.58
2019-03-20T01:37:06.893Z,101404.14
2019-03-20T01:39:37.935Z,101407.75
2019-03-20T01:42:09.940Z,101405.38
2019-03-20T01:44:40.945Z,101406.36
2019-03-20T01:47:11.928Z,101410.78
2019-03-20T01:49:42.881Z,101406.77
2019-03-20T01:52:13.887Z,101405.47
2019-03-20T01:54:44.805Z,101405.38
2019-03-20T01:57:15.938Z,101408.92
2019-03-20T01:59:46.896Z,101413.37
2019-03-20T02:02:17.809Z,101413.42
2019-03-20T02:04:48.831Z,101415.72
2019-03-20T02:07:19.747Z,101413.55
2019-03-20T02:09:50.713Z,101424.13
2019-03-20T02:12:21.624Z,101426.45
2019-03-20T02:14:52.653Z,101428.74
2019-03-20T02:17:23.581Z,101429.19
2019-03-20T02:19:54.661Z,101426.22
2019-03-20T02:22:25.711Z,101430.56
2019-03-20T02:24:56.673Z,101429.64
2019-03-20T02:27:27.689Z,101423.97
2019-03-20T02:29:58.704Z,101428.04
2019-03-20T02:32:29.683Z,101436.00
2019-03-20T02:35:00.783Z,101447.45
2019-03-20T02:37:32.945Z,101448.73
2019-03-20T02:40:06.092Z,101451.45
2019-03-20T02:42:38.480Z,101454.59
2019-03-20T02:45:12.770Z,101450.67
2019-03-20T02:47:43.671Z,101456.39
2019-03-20T02:50:15.686Z,101458.67
2019-03-20T02:52:46.572Z,101459.12
2019-03-20T02:55:17.615Z,101464.42
2019-03-20T02:57:49.437Z,101470.57
2019-03-20T03:00:21.109Z,101474.96
2019-03-20T03:02:52.191Z,101474.50
2019-03-20T03:05:23.353Z,101469.36
2019-03-20T03:07:54.527Z,101479.95
2019-03-20T03:10:25.546Z,101474.95
2019-03-20T03:12:56.476Z,101475.45
2019-03-20T03:15:27.525Z,101472.85
2019-03-20T03:17:58.476Z,101491.39
2019-03-20T03:20:29.414Z,101491.36
2019-03-20T03:23:00.418Z,101494.93
2019-03-20T03:25:31.382Z,101497.16
2019-03-20T03:28:02.348Z,101496.73
2019-03-20T03:30:33.312Z,101498.08
2019-03-20T03:33:04.230Z,101501.73
2019-03-20T03:35:35.264Z,101503.47
2019-03-20T03:38:06.179Z,101502.59
2019-03-20T03:40:38.200Z,101507.86
2019-03-20T03:43:09.262Z,101508.77
2019-03-20T03:45:40.320Z,101506.99
2019-03-20T03:48:11.293Z,101510.17
2019-03-20T03:50:42.483Z,101515.95
2019-03-20T03:53:13.476Z,101517.30
2019-03-20T03:55:44.484Z,101515.55
2019-03-20T03:58:16.208Z,101520.03
2019-03-20T04:00:47.149Z,101518.67
2019-03-20T04:03:18.042Z,101512.84
2019-03-20T04:05:49.030Z,101507.87
2019-03-20T04:08:20.100Z,101513.55
2019-03-20T04:10:52.135Z,101507.84
2019-03-20T04:13:23.128Z,101510.48
2019-03-20T04:15:54.222Z,101512.27
2019-03-20T04:18:25.140Z,101504.34
2019-03-20T04:20:56.263Z,101508.37
2019-03-20T04:23:27.263Z,101522.19
2019-03-20T04:25:58.254Z,101515.18
2019-03-20T04:28:31.414Z,101516.97
2019-03-20T04:31:02.417Z,101521.30
2019-03-20T04:33:33.422Z,101520.52
2019-03-20T04:36:04.368Z,101522.76
2019-03-20T04:38:35.302Z,101532.03
2019-03-20T04:41:06.246Z,101534.20
2019-03-20T04:43:37.177Z,101542.14
2019-03-20T04:46:08.150Z,101545.18
2019-03-20T04:48:39.110Z,101549.63
2019-03-20T04:51:10.065Z,101554.92
2019-03-20T04:53:41.351Z,101548.75
2019-03-20T04:56:12.350Z,101551.40
2019-03-20T04:58:44.192Z,101556.23
2019-03-20T05:01:15.248Z,101557.12
2019-03-20T05:03:47.232Z,101564.60
2019-03-20T05:06:18.262Z,101568.11
2019-03-20T05:08:49.356Z,101572.20
2019-03-20T05:11:20.457Z,101574.36
2019-03-20T05:13:51.387Z,101578.75
2019-03-20T05:16:22.443Z,101573.02
2019-03-20T05:18:53.487Z,101586.31
2019-03-20T05:21:24.535Z,101598.21
2019-03-20T05:23:55.545Z,101601.73
2019-03-20T05:26:26.523Z,101595.53
2019-03-20T05:28:57.617Z,101611.47
2019-03-20T05:31:29.051Z,101608.73
2019-03-20T05:34:00.086Z,101613.70
2019-03-20T05:36:31.146Z,101612.80
2019-03-20T05:39:02.280Z,101615.95
2019-03-20T05:41:34.345Z,101627.38
2019-03-20T05:44:05.228Z,101629.98
2019-03-20T05:46:36.278Z,101635.61
2019-03-20T05:49:07.458Z,101632.55
2019-03-20T05:51:43.177Z,101633.37
2019-03-20T05:54:17.619Z,101636.17
2019-03-20T05:56:48.744Z,101630.80
2019-03-20T05:59:20.602Z,101633.02
2019-03-20T06:01:51.780Z,101628.47
2019-03-20T06:04:22.699Z,101639.02
2019-03-20T06:06:53.833Z,101653.70
2019-03-20T06:09:24.697Z,101657.67
2019-03-20T06:11:55.632Z,101647.92
2019-03-20T06:14:26.520Z,101656.75
2019-03-20T06:16:57.560Z,101655.27
2019-03-20T06:19:28.520Z,101664.58
2019-03-20T06:21:59.459Z,101669.92
2019-03-20T06:24:30.354Z,101659.78
2019-03-20T06:27:01.504Z,101674.34
2019-03-20T06:29:32.422Z,101686.28
2019-03-20T06:32:03.362Z,101688.98
2019-03-20T06:34:34.224Z,101690.73
2019-03-20T06:37:06.339Z,101694.59
2019-03-20T06:39:37.520Z,101689.34
2019-03-20T06:42:09.407Z,101687.48
2019-03-20T06:44:40.467Z,101688.31
2019-03-20T06:47:11.571Z,101682.46
2019-03-20T06:49:42.704Z,101676.59
2019-03-20T06:52:13.613Z,101684.75
2019-03-20T06:55:01.082Z,101689.77
2019-03-20T06:57:32.067Z,101692.02
2019-03-20T07:00:38.918Z,101696.04
2019-03-20T07:03:22.071Z,101699.98
2019-03-20T07:06:12.415Z,101696.77
2019-03-20T07:09:15.400Z,101698.08
2019-03-20T07:11:46.292Z,101704.62
2019-03-20T07:14:17.251Z,101710.41
2019-03-20T07:16:48.296Z,101710.02
2019-03-20T07:19:19.386Z,101717.34
2019-03-20T07:21:50.395Z,101716.75
2019-03-20T07:24:21.483Z,101719.50
2019-03-20T07:26:52.778Z,101723.03
2019-03-20T07:29:23.847Z,101714.45
2019-03-20T07:31:54.765Z,101716.78
2019-03-20T07:34:25.769Z,101722.30
2019-03-20T07:36:56.653Z,101725.03
2019-03-20T07:39:27.608Z,101730.36
2019-03-20T07:41:58.445Z,101726.71
2019-03-20T07:44:29.401Z,101717.61
2019-03-20T07:47:00.541Z,101730.30
2019-03-20T07:49:31.521Z,101731.58
2019-03-20T07:52:02.639Z,101732.00
2019-03-20T07:54:33.654Z,101733.33
2019-03-20T07:57:04.638Z,101726.98
2019-03-20T07:59:36.582Z,101730.22
2019-03-20T08:02:08.248Z,101723.02
2019-03-20T08:04:39.383Z,101722.12
2019-03-20T08:07:10.312Z,101715.00
2019-03-20T08:09:41.336Z,101717.71
2019-03-20T08:12:12.133Z,101712.58
2019-03-20T08:14:42.980Z,101700.95
2019-03-20T08:17:13.970Z,101719.05
2019-03-20T08:19:45.130Z,101715.77
2019-03-20T08:22:16.015Z,101716.70
2019-03-20T08:24:46.919Z,101713.70
2019-03-20T08:27:17.947Z,101717.11
2019-03-20T08:29:48.965Z,101719.01
2019-03-20T08:32:19.780Z,101727.58
2019-03-20T08:34:52.285Z,101727.25
2019-03-20T08:37:23.262Z,101726.72
2019-03-20T08:39:54.141Z,101720.88
2019-03-20T08:42:25.093Z,101728.06
2019-03-20T08:44:55.937Z,101723.93
2019-03-20T08:47:26.772Z,101716.41
2019-03-20T08:49:57.668Z,101720.31
2019-03-20T08:52:28.562Z,101720.73
2019-03-20T08:54:59.484Z,101726.52
2019-03-20T08:57:30.394Z,101720.12
2019-03-20T09:00:01.328Z,101717.39
2019-03-20T09:02:33.264Z,101719.92
2019-03-20T09:05:07.351Z,101712.81
2019-03-20T09:07:46.847Z,101714.47
2019-03-20T09:10:14.412Z,101710.67
2019-03-20T09:12:45.424Z,101713.22
2019-03-20T09:15:17.419Z,101714.92
2019-03-20T09:17:48.424Z,101711.95
2019-03-20T09:20:24.397Z,101706.20
2019-03-20T09:22:55.296Z,101708.36
2019-03-20T09:25:26.803Z,101721.07
2019-03-20T09:27:57.879Z,101710.91
2019-03-20T09:30:30.286Z,101716.38
2019-03-20T09:33:01.369Z,101716.16
2019-03-20T09:35:32.597Z,101712.00
2019-03-20T09:38:03.713Z,101709.80
2019-03-20T09:40:34.857Z,101707.67
2019-03-20T09:43:05.891Z,101705.15
2019-03-20T09:45:37.101Z,101710.73
2019-03-20T09:48:08.238Z,101715.34
2019-03-20T09:50:39.202Z,101710.34
2019-03-20T09:53:10.033Z,101698.48
2019-03-20T09:55:43.324Z,101704.03
2019-03-20T09:58:15.899Z,101702.67
2019-03-20T10:00:47.185Z,101703.12
2019-03-20T10:03:19.046Z,101700.57
2019-03-20T10:05:50.182Z,101705.13
2019-03-20T10:08:24.610Z,101706.36
2019-03-20T10:11:05.731Z,101706.22
2019-03-20T10:13:37.613Z,101704.20
2019-03-20T10:16:12.092Z,101706.98
2019-03-20T10:18:42.443Z,101701.70
2019-03-20T10:21:16.645Z,101702.02
2019-03-20T10:23:52.285Z,101708.96
2019-03-20T10:26:23.672Z,101702.34
2019-03-20T10:28:54.898Z,101699.84
2019-03-20T10:31:25.796Z,101702.26
2019-03-20T10:33:57.015Z,101700.30
2019-03-20T10:36:30.635Z,101708.55
2019-03-20T10:39:06.989Z,101699.83
2019-03-20T10:41:40.124Z,101701.95
2019-03-20T10:44:11.062Z,101704.66
2019-03-20T10:46:45.284Z,101706.42
2019-03-20T10:49:19.419Z,101709.77
2019-03-20T10:51:54.305Z,101706.19
2019-03-20T10:54:25.318Z,101705.81
2019-03-20T10:56:56.297Z,101704.32
2019-03-20T10:59:28.810Z,101701.16
2019-03-20T11:02:01.390Z,101707.41
2019-03-20T11:04:33.267Z,101701.62
2019-03-20T11:07:05.263Z,101703.09
2019-03-20T11:09:36.313Z,101706.63
2019-03-20T11:12:08.358Z,101701.12
2019-03-20T11:14:39.378Z,101699.75
2019-03-20T11:17:10.372Z,101703.97
2019-03-20T11:19:41.218Z,101703.77
2019-03-20T11:22:18.796Z,101701.42
2019-03-20T11:24:44.815Z,101699.05
2019-03-20T11:27:16.208Z,101704.63
2019-03-20T11:29:48.941Z,101702.80
2019-03-20T11:32:21.496Z,101701.58
2019-03-20T11:34:54.174Z,101701.92
2019-03-20T11:37:25.138Z,101692.13
2019-03-20T11:39:57.817Z,101699.44
2019-03-20T11:42:30.247Z,101690.00
2019-03-20T11:45:01.171Z,101694.34
2019-03-20T11:47:32.272Z,101697.26
2019-03-20T11:50:04.107Z,101695.05
2019-03-20T11:52:35.220Z,101698.34
2019-03-20T11:55:07.848Z,101701.30
2019-03-20T11:57:38.970Z,101697.04
2019-03-20T12:00:16.242Z,101691.05
2019-03-20T12:02:47.314Z,101680.31
2019-03-20T12:05:19.121Z,101678.84
2019-03-20T12:07:50.149Z,101678.93
2019-03-20T12:10:23.340Z,101679.30
2019-03-20T12:12:54.341Z,101673.45
2019-03-20T12:15:25.250Z,101671.73
2019-03-20T12:17:56.244Z,101672.86
2019-03-20T12:20:27.360Z,101674.14
2019-03-20T12:22:58.606Z,101677.05
2019-03-20T12:25:35.849Z,101678.14
2019-03-20T12:28:06.794Z,101674.92
2019-03-20T12:30:38.741Z,101676.36
2019-03-20T12:33:09.685Z,101679.86
2019-03-20T12:35:43.054Z,101666.27
2019-03-20T12:38:15.130Z,101668.84
2019-03-20T12:40:46.242Z,101675.06
2019-03-20T12:43:17.177Z,101675.72
2019-03-20T12:45:48.201Z,101674.53
2019-03-20T12:48:19.349Z,101673.66
2019-03-20T12:50:50.272Z,101667.53
2019-03-20T12:53:33.040Z,101677.08
2019-03-20T12:56:04.013Z,101668.80
2019-03-20T12:58:35.059Z,101678.41
2019-03-20T13:01:06.236Z,101673.11
2019-03-20T13:03:38.995Z,101672.78
2019-03-20T13:06:10.889Z,101676.53
2019-03-20T13:08:43.574Z,101674.83
2019-03-20T13:11:14.516Z,101677.80
2019-03-20T13:13:45.612Z,101669.41
2019-03-20T13:16:24.078Z,101674.78
2019-03-20T13:18:56.841Z,101665.06
2019-03-20T13:21:27.896Z,101668.98
2019-03-20T13:24:01.135Z,101663.10
2019-03-20T13:26:32.124Z,101677.78
2019-03-20T13:29:03.148Z,101677.33
2019-03-20T13:31:34.150Z,101679.17
2019-03-20T13:34:06.780Z,101673.34
2019-03-20T13:36:37.945Z,101682.95
2019-03-20T13:39:08.998Z,101682.41
2019-03-20T13:41:40.012Z,101681.78
2019-03-20T13:44:23.991Z,101675.28
2019-03-20T13:46:55.053Z,101679.33
2019-03-20T13:49:27.569Z,101683.00
2019-03-20T13:52:01.761Z,101680.45
2019-03-20T13:54:34.489Z,101675.66
2019-03-20T13:57:05.363Z,101681.95
2019-03-20T13:59:36.668Z,101679.40
2019-03-20T14:02:09.663Z,101675.25
2019-03-20T14:04:43.367Z,101674.86
2019-03-20T14:07:15.038Z,101677.27
2019-03-20T14:09:47.138Z,101677.69
2019-03-20T14:12:19.810Z,101670.06
2019-03-20T14:14:50.980Z,101670.91
2019-03-20T14:17:22.098Z,101673.15
2019-03-20T14:19:54.350Z,101664.27
2019-03-20T14:22:25.475Z,101673.98
2019-03-20T14:24:56.429Z,101670.57
2019-03-20T14:27:27.451Z,101664.98
2019-03-20T14:29:58.409Z,101663.00
2019-03-20T14:32:29.371Z,101659.00
2019-03-20T14:35:00.392Z,101662.68
2019-03-20T14:37:31.443Z,101664.41
2019-03-20T14:40:02.432Z,101672.77
2019-03-20T14:42:33.668Z,101669.42
2019-03-20T14:45:05.954Z,101675.64
2019-03-20T14:47:42.135Z,101674.37
2019-03-20T14:50:12.707Z,101676.39
2019-03-20T14:52:43.612Z,101685.27
2019-03-20T14:55:14.903Z,101681.45
2019-03-20T14:57:45.951Z,101681.95
2019-03-20T15:00:26.100Z,101684.85
2019-03-20T15:02:57.186Z,101684.85
2019-03-20T15:05:28.285Z,101681.56
2019-03-20T15:08:00.191Z,101678.09
2019-03-20T15:10:31.099Z,101678.94
2019-03-20T15:13:01.957Z,101682.02
2019-03-20T15:15:41.904Z,101681.91
2019-03-20T15:18:12.727Z,101681.56
2019-03-20T15:20:43.748Z,101680.30
2019-03-20T15:23:15.289Z,101678.09
2019-03-20T15:25:49.037Z,101686.72
2019-03-20T15:28:20.145Z,101685.80
2019-03-20T15:30:53.128Z,101684.09
2019-03-20T15:33:25.652Z,101682.55
2019-03-20T15:35:56.688Z,101689.28
2019-03-20T15:38:27.751Z,101695.95
2019-03-20T15:40:58.744Z,101694.10
2019-03-20T15:43:30.678Z,101698.22
2019-03-20T15:46:01.720Z,101699.09
2019-03-20T15:48:32.881Z,101698.22
2019-03-20T15:51:03.783Z,101703.52
2019-03-20T15:53:34.729Z,101695.69
2019-03-20T15:56:05.759Z,101700.92
2019-03-20T15:58:36.568Z,101700.73
2019-03-20T16:01:09.685Z,101707.84
2019-03-20T16:03:46.018Z,101705.27
2019-03-20T16:06:16.999Z,101704.19
2019-03-20T16:08:49.802Z,101710.53
2019-03-20T16:11:20.820Z,101713.74
2019-03-20T16:13:51.782Z,101723.14
2019-03-20T16:16:22.720Z,101719.66
2019-03-20T16:18:53.594Z,101723.70
2019-03-20T16:21:24.465Z,101722.69
2019-03-20T16:23:55.336Z,101729.50
2019-03-20T16:26:28.726Z,101726.58
2019-03-20T16:28:59.855Z,101728.39
2019-03-20T16:31:30.974Z,101723.62
2019-03-20T16:34:01.876Z,101735.59
2019-03-20T16:36:32.822Z,101731.64
2019-03-20T16:39:05.628Z,101731.22
2019-03-20T16:41:36.505Z,101733.47
2019-03-20T16:44:07.443Z,101737.95
2019-03-20T16:46:38.429Z,101731.33
2019-03-20T16:49:09.383Z,101739.77
2019-03-20T16:51:40.283Z,101742.92
2019-03-20T16:54:11.286Z,101740.70
2019-03-20T16:56:42.219Z,101741.63
2019-03-20T16:59:13.110Z,101745.20
2019-03-20T17:01:43.974Z,101752.83
2019-03-20T17:04:14.926Z,101748.84
2019-03-20T17:06:45.947Z,101744.00
2019-03-20T17:09:17.566Z,101748.94
2019-03-20T17:11:48.403Z,101749.86
2019-03-20T17:14:20.364Z,101752.09
2019-03-20T17:16:51.466Z,101755.15
2019-03-20T17:19:22.356Z,101753.83
2019-03-20T17:21:53.312Z,101756.04
2019-03-20T17:24:24.185Z,101764.47
2019-03-20T17:26:55.150Z,101761.41
2019-03-20T17:29:26.103Z,101758.67
2019-03-20T17:31:57.195Z,101759.47
2019-03-20T17:34:28.227Z,101761.25
2019-03-20T17:36:59.364Z,101760.87
2019-03-20T17:39:30.531Z,101761.73
2019-03-20T17:42:01.811Z,101763.16
2019-03-20T17:44:33.001Z,101768.06
2019-03-20T17:47:04.050Z,101760.91
2019-03-20T17:49:35.704Z,101768.86
2019-03-20T17:52:08.157Z,101774.19
2019-03-20T17:54:39.259Z,101771.04
2019-03-20T17:57:14.407Z,101771.90
2019-03-20T17:59:45.865Z,101774.50
2019-03-20T18:02:23.878Z,101772.77
2019-03-20T18:04:50.107Z,101772.73
2019-03-20T18:07:22.926Z,101781.66
2019-03-20T18:09:54.460Z,101775.55
2019-03-20T18:12:25.621Z,101767.13
2019-03-20T18:14:56.714Z,101775.96
2019-03-20T18:17:28.083Z,101775.89
2019-03-20T18:19:59.382Z,101780.88
2019-03-20T18:22:32.375Z,101779.02
2019-03-20T18:25:03.386Z,101780.34
2019-03-20T18:27:34.450Z,101778.58
2019-03-20T18:30:11.426Z,101782.13
2019-03-20T18:32:42.744Z,101780.28
2019-03-20T18:35:14.381Z,101779.41
2019-03-20T18:37:45.612Z,101776.31
2019-03-20T18:40:22.756Z,101788.70
2019-03-20T18:42:53.950Z,101790.02
2019-03-20T18:45:28.269Z,101786.02
2019-03-20T18:47:59.543Z,101771.44
2019-03-20T18:50:30.789Z,101789.49
2019-03-20T18:53:02.438Z,101790.34
2019-03-20T18:55:33.987Z,101794.51
2019-03-20T18:58:05.577Z,101791.95
2019-03-20T19:00:36.855Z,101791.53
2019-03-20T19:03:14.405Z,101795.47
2019-03-20T19:05:52.106Z,101792.84
2019-03-20T19:08:24.007Z,101793.71
2019-03-20T19:10:57.066Z,101799.95
2019-03-20T19:13:28.561Z,101802.62
2019-03-20T19:16:01.370Z,101805.70
2019-03-20T19:18:33.067Z,101800.83
2019-03-20T19:21:04.691Z,101806.61
2019-03-20T19:23:35.782Z,101814.17
2019-03-20T19:26:07.851Z,101809.41
2019-03-20T19:28:39.133Z,101812.10
2019-03-20T19:31:10.544Z,101808.53
2019-03-20T19:33:41.620Z,101817.88
2019-03-20T19:36:12.676Z,101818.28
2019-03-20T19:38:43.690Z,101813.91
2019-03-20T19:41:14.868Z,101814.74
2019-03-20T19:43:46.145Z,101819.66
2019-03-20T19:46:17.056Z,101814.33
2019-03-20T19:48:50.614Z,101813.92
2019-03-20T19:51:21.627Z,101814.83
2019-03-20T19:54:08.790Z,101824.17
2019-03-20T19:56:40.630Z,101826.40
2019-03-20T19:59:12.483Z,101822.00
2019-03-20T20:01:44.510Z,101821.57
2019-03-20T20:04:16.454Z,101822.48
2019-03-20T20:06:48.957Z,101820.28
2019-03-20T20:09:20.983Z,101820.67
2019-03-20T20:11:52.968Z,101826.91
2019-03-20T20:14:27.116Z,101822.55
2019-03-20T20:16:58.474Z,101816.81
2019-03-20T20:19:29.696Z,101830.94
2019-03-20T20:22:06.119Z,101826.53
2019-03-20T20:24:37.210Z,101824.38
2019-03-20T20:27:08.464Z,101824.36
2019-03-20T20:29:41.397Z,101826.58
2019-03-20T20:32:15.221Z,101828.85
2019-03-20T20:34:47.635Z,101829.70
2019-03-20T20:37:21.999Z,101830.64
2019-03-20T20:39:53.487Z,101830.20
2019-03-20T20:42:26.092Z,101832.85
2019-03-20T20:45:05.557Z,101828.44
2019-03-20T20:47:42.094Z,101836.81
2019-03-20T20:50:17.838Z,101839.47
2019-03-20T20:52:56.647Z,101837.74
2019-03-20T20:55:27.589Z,101835.50
2019-03-20T20:57:58.515Z,101835.50
2019-03-20T21:00:29.758Z,101835.98
2019-03-20T21:03:01.168Z,101844.39
2019-03-20T21:05:34.011Z,101839.09
2019-03-20T21:08:08.882Z,101846.59
2019-03-20T21:10:41.415Z,101840.87
2019-03-20T21:13:13.231Z,101834.23
2019-03-20T21:15:47.897Z,101831.58
2019-03-20T21:18:37.190Z,101832.90
2019-03-20T21:21:09.343Z,101833.32
2019-03-20T21:24:00.412Z,101831.09
2019-03-20T21:26:53.909Z,101838.64
2019-03-20T21:29:46.586Z,101832.43
2019-03-20T21:32:36.715Z,101840.38
2019-03-20T21:35:46.006Z,101837.27
2019-03-20T21:38:16.165Z,101833.74
2019-03-20T21:41:10.893Z,101832.86
2019-03-20T21:44:10.781Z,101828.02
2019-03-20T21:46:56.960Z,101831.11
2019-03-20T21:49:27.890Z,101831.11
2019-03-20T21:51:58.772Z,101832.00
2019-03-20T21:54:58.639Z,101832.41
2019-03-20T21:57:38.725Z,101833.31
2019-03-20T22:00:29.081Z,101837.27
2019-03-20T22:02:59.891Z,101835.48
2019-03-20T22:05:48.452Z,101833.70
2019-03-20T22:08:19.326Z,101834.58
2019-03-20T22:11:20.622Z,101824.41
2019-03-20T22:14:05.359Z,101829.70
2019-03-20T22:16:59.229Z,101834.56
2019-03-20T22:19:42.262Z,101833.66
2019-03-20T22:22:25.562Z,101835.39
2019-03-20T22:25:11.677Z,101831.41
2019-03-20T22:28:04.124Z,101841.55
2019-03-20T22:30:35.077Z,101838.02
2019-03-20T22:33:18.297Z,101840.18
2019-03-20T22:35:49.776Z,101839.77
2019-03-20T22:38:26.537Z,101837.53
2019-03-20T22:41:33.894Z,101836.19
2019-03-20T22:44:04.731Z,101832.67
2019-03-20T22:46:56.955Z,101839.23
2019-03-20T22:49:35.635Z,101841.44
2019-03-20T22:52:13.435Z,101851.11
2019-03-20T22:54:56.542Z,101845.32
2019-03-20T22:57:36.620Z,101848.84
2019-03-20T23:00:10.810Z,101849.28
2019-03-20T23:02:52.147Z,101851.49
2019-03-20T23:05:23.188Z,101848.34
2019-03-20T23:07:54.149Z,101854.07
2019-03-20T23:10:25.118Z,101851.88
2019-03-20T23:12:56.079Z,101849.22
2019-03-20T23:15:27.908Z,101848.27
2019-03-20T23:17:58.678Z,101850.03
2019-03-20T23:20:29.631Z,101853.16
2019-03-20T23:23:00.664Z,101854.00
2019-03-20T23:25:31.623Z,101851.80
2019-03-20T23:28:02.607Z,101853.53
2019-03-20T23:30:34.694Z,101853.93
2019-03-20T23:33:05.728Z,101857.89
2019-03-20T23:35:36.824Z,101848.56
2019-03-20T23:38:07.832Z,101842.91
2019-03-20T23:40:38.874Z,101845.52
2019-03-20T23:43:12.392Z,101848.16
2019-03-20T23:45:42.831Z,101842.88
2019-03-20T23:48:41.052Z,101841.95
2019-03-20T23:51:18.207Z,101837.06
2019-03-20T23:53:51.130Z,101833.06
2019-03-20T23:56:22.671Z,101833.98
2019-03-20T23:58:53.611Z,101834.78
